Tulare, CA

5:11 AM PST on January 26, 2015 (GMT -0800)
Visalia Municipal | Change Station
CLOSE
Current Station
Airport
Location: Visalia,
Elevation: 292 ft
Nearby Weather Stations
Active Advisory: Dense Fog Advisory

Elev 292 ft 36.32 °N, 119.39 °W | Updated 16 minutes ago

Fog
Fog
37 °F
Feels Like 34 °F
N
5
Wind Variable Wind from ENE

Today
High -- | Low -- °F
--% Chance of Precip.
Yesterday
High -- | Low -- °F
Precip. -- in
7:02 AM 5:17 PM
Waxing Crescent, 43% visible
Pressure 30.06 in
Visibility 0.2 miles
Clouds Overcast 200 ft
Windchill 34 °F
Dew Point 32 °F
Humidity 81%
Rainfall 0.00 in
Snow Depth Not available.
UV 0 out of 12
Pollen 4.40 out of 12
Air Quality Not available.
Flu Activity Not available.
METAR KVIS 261255Z AUTO 07004KT M1/4SM OVC002 03/00 A3006 RMK AO1

More Conditions Fewer Conditions

Pressure 30.06 in
Visibility 0.2 miles
Clouds Overcast 200 ft
Windchill 34 °F
Dew Point 32 °F
Humidity 81%
Rainfall 0.00 in
Snow Depth Not available.
UV 0 out of 12
Pollen 4.40 out of 12
Air Quality Not available.
Flu Activity Not available.
METAR KVIS 261255Z AUTO 07004KT M1/4SM OVC002 03/00 A3006 RMK AO1

More Conditions Fewer Conditions

10-Day Weather Forecast

Almanac

Astronomy

Jan. 26, 2015 Rise Set
Actual Time
Civil Twilight
Nautical Twilight
Astronomical Twilight
Moon
Length of Visible Light
Length of Day
Tomorrow will be .
, % of the Moon is Illuminated

Today's Extremes

State Highs State Lows

Community

WunderPhotos

Upload Photos

1,790,192 photos uploaded!

WunderBlogs® & News

Nearby

Air Quality

  Air Quality AQ Index Pollutant
Not available.

Snow Depth

Station Depth Elevation

Earthquake Activity

City Distance Mag. Time & Date
Minimum magnitude displayed is 2.5.

Coastal Water Temperatures

Place Temperature

Nearby Weather Stations